»·PEaware :: N30346 L52-L88

N30346 :: L52-L88

FLIGHT INFORMATION

Flight Status: Arrived
Operator: Privately registered:
United States
More flights under this callsign
Pilot: Brad C. (33254)
Aircraft: CESSNA 177 CARDINAL
(C177)
More flights by this aircraft type
Origin: L52 Oceano Co
United States
Destination: L88 New Cuyama
United States
More flights between these airports :: More routes between these airports
Route: MGO
File this flight plan on PilotEdge
Remarks:
Altitude:
(Current/Filed)
3,500ft
Speed:
(Current/Filed)
100kts
Departed: 04-Nov-23 02:47 PM
Arrived: 04-Nov-23 03:22 PM
Distance/Time
Traveled:
47nm/0:35
Distance/Time
To Go:
Arrived

Flight Plot

Page will automatically refresh every two minutes.

Flight plan parsing failed; only flown route is shown


Map Options




Map Legend


Flown Route
Filed Route
Departure Airport
Arrival Airport
Navaid (VOR, NDB)
Fix

Horizontal Profiles

Position Reports

Time Latitude Longitude Heading Altitude Ground
Speed
04-Nov-23 14:30 33.217544 -117.352652 88 31ft 0kts
04-Nov-23 14:31 33.217544 -117.352652 88 31ft 0kts
04-Nov-23 14:32 33.217544 -117.352652 88 31ft 0kts
04-Nov-23 14:33 35.102098 -120.622279 213 17ft 0kts
04-Nov-23 14:34 35.102098 -120.622279 213 17ft 0kts
04-Nov-23 14:35 35.102098 -120.622279 213 17ft 0kts
04-Nov-23 14:36 35.102098 -120.622279 213 17ft 0kts
04-Nov-23 14:37 35.102098 -120.622279 213 17ft 0kts
04-Nov-23 14:38 35.102098 -120.622279 213 17ft 0kts
04-Nov-23 14:39 35.102098 -120.622279 213 17ft 0kts
04-Nov-23 14:40 35.102098 -120.622279 213 17ft 0kts
04-Nov-23 14:41 35.102098 -120.622279 213 17ft 0kts
04-Nov-23 14:42 35.102098 -120.622279 213 17ft 0kts
04-Nov-23 14:43 35.101841 -120.622321 188 16ft 5kts
04-Nov-23 14:44 35.099640 -120.619730 123 17ft 0kts
04-Nov-23 14:45 35.099578 -120.619443 68 17ft 3kts
04-Nov-23 14:46 35.106383 -120.631358 304 250ft 69kts
04-Nov-23 14:47 35.119051 -120.631305 117 693ft 100kts
04-Nov-23 14:48 35.104379 -120.607693 106 1266ft 92kts
04-Nov-23 14:49 35.094170 -120.579615 107 1788ft 90kts
04-Nov-23 14:50 35.086006 -120.550683 105 2267ft 90kts
04-Nov-23 14:51 35.079245 -120.521754 98 2725ft 88kts
04-Nov-23 14:52 35.073536 -120.492509 97 3192ft 91kts
04-Nov-23 14:53 35.069881 -120.459078 105 3474ft 109kts
04-Nov-23 14:54 35.060041 -120.422551 104 3613ft 121kts
04-Nov-23 14:55 35.052602 -120.381895 97 3607ft 123kts
04-Nov-23 14:56 35.044977 -120.341479 100 3710ft 118kts
04-Nov-23 14:57 35.037206 -120.303078 100 3913ft 115kts
04-Nov-23 14:58 35.029575 -120.265599 100 4168ft 110kts
04-Nov-23 14:59 35.022477 -120.230802 99 4566ft 102kts
04-Nov-23 15:00 35.015718 -120.197567 99 4971ft 99kts
04-Nov-23 15:01 35.009141 -120.165383 98 5374ft 96kts
04-Nov-23 15:02 35.002704 -120.133970 98 5780ft 94kts
04-Nov-23 15:03 34.995922 -120.100834 99 6000ft 103kts
04-Nov-23 15:04 34.989007 -120.067312 98 6304ft 100kts
04-Nov-23 15:05 34.982265 -120.034531 98 6611ft 98kts
04-Nov-23 15:06 34.975771 -120.002652 109 6909ft 95kts
04-Nov-23 15:07 34.969424 -119.971768 97 7201ft 91kts
04-Nov-23 15:08 34.963340 -119.942389 97 7506ft 86kts
04-Nov-23 15:09 34.957552 -119.916714 103 7568ft 72kts
04-Nov-23 15:10 34.950110 -119.887587 100 6682ft 109kts
04-Nov-23 15:11 34.941927 -119.850969 103 5841ft 113kts
04-Nov-23 15:12 34.935491 -119.813846 96 5066ft 112kts
04-Nov-23 15:13 34.929969 -119.788355 101 4552ft 113kts
04-Nov-23 15:14 34.924203 -119.751275 91 3860ft 112kts
04-Nov-23 15:15 34.918772 -119.722036 103 3525ft 105kts
04-Nov-23 15:16 34.916470 -119.714960 126 3456ft 104kts
04-Nov-23 15:17 34.914149 -119.694722 8 3140ft 103kts
04-Nov-23 15:18 34.938188 -119.688870 15 2866ft 114kts
04-Nov-23 15:19 34.955079 -119.693809 307 2638ft 100kts
04-Nov-23 15:20 34.951780 -119.702545 163 2257ft 79kts
04-Nov-23 15:21 34.940772 -119.687672 120 2167ft 35kts
04-Nov-23 15:22 34.941300 -119.688889 294 2162ft 17kts
04-Nov-23 15:23 34.942650 -119.691106 343 2155ft 5kts
04-Nov-23 15:24 34.943029 -119.690966 20 2155ft 0kts
04-Nov-23 15:25 34.943029 -119.690966 20 2155ft 0kts
04-Nov-23 15:26 34.943029 -119.690966 20 2155ft 0kts
04-Nov-23 15:27 34.943029 -119.690966 20 2155ft 0kts
04-Nov-23 15:28 34.943029 -119.690966 20 2155ft 0kts
04-Nov-23 15:29 34.943029 -119.690966 20 2155ft 0kts
04-Nov-23 15:30 34.943029 -119.690966 20 2155ft 0kts
04-Nov-23 15:31 34.943029 -119.690966 20 2155ft 0kts
04-Nov-23 15:32 34.943029 -119.690966 20 2155ft 0kts
04-Nov-23 15:33 34.943029 -119.690966 20 2155ft 0kts
04-Nov-23 15:34 34.943029 -119.690966 20 2155ft 0kts
04-Nov-23 15:35 34.943029 -119.690966 20 2155ft 0kts

Navigation Log

Ident Type
Flight plan parsing failed, navigation log unavailable